Time;durP1;ratioP1;P1;durP2;ratioP2;P2;SDS_P1;SDS_P2;PMS_P1;PMS_P2;Temp;Humidity;BMP_temperature;BMP_pressure;BME280_temperature;BME280_humidity;BME280_pressure;Samples;Min_cycle;Max_cycle;Signal;HPM_P1;HPM_P2
2022/01/02 00:00:08;;;;;;;16.70;7.90;;;;;;;10.95;82.05;101683.31;4994683;28;20042;-58
2022/01/02 00:02:35;;;;;;;18.15;7.90;;;;;;;10.93;81.54;101687.19;4994389;28;20034;-58
2022/01/02 00:05:11;;;;;;;17.23;8.02;;;;;;;11.02;81.49;101692.13;4994436;28;20031;-58
2022/01/02 00:08:07;;;;;;;16.52;7.80;;;;;;;11.02;81.61;101695.72;4994518;28;20023;-57
2022/01/02 00:10:51;;;;;;;18.15;7.70;;;;;;;11.04;81.84;101696.28;4993304;28;20050;-57
2022/01/02 00:13:32;;;;;;;17.88;7.47;;;;;;;11.02;81.29;101695.72;4993891;28;20085;-57
2022/01/02 00:16:04;;;;;;;19.73;7.78;;;;;;;11.09;80.26;101706.47;4994183;28;20030;-56
2022/01/02 00:18:34;;;;;;;15.65;7.50;;;;;;;11.12;80.92;101710.63;4994559;28;20541;-57
2022/01/02 00:21:02;;;;;;;21.60;7.82;;;;;;;11.15;80.17;101723.84;4994168;28;20474;-58
2022/01/02 00:23:32;;;;;;;18.75;7.70;;;;;;;11.08;80.30;101727.78;4994199;28;20030;-57
2022/01/02 00:26:04;;;;;;;17.00;7.50;;;;;;;11.05;79.77;101720.06;4993844;28;20030;-57
2022/01/02 00:28:31;;;;;;;17.88;7.72;;;;;;;11.11;80.20;101728.34;4993825;28;20470;-57
2022/01/02 00:30:58;;;;;;;17.85;7.47;;;;;;;11.13;80.12;101728.88;4992876;28;20031;-57
2022/01/02 00:33:25;;;;;;;18.70;8.05;;;;;;;11.14;80.30;101719.47;4992183;28;20037;-56
2022/01/02 00:35:51;;;;;;;17.00;7.53;;;;;;;11.11;80.40;101726.38;4992837;28;20034;-55
2022/01/02 00:38:20;;;;;;;18.45;7.88;;;;;;;11.03;80.74;101711.22;4993763;28;20022;-56
2022/01/02 00:40:48;;;;;;;19.35;8.20;;;;;;;11.06;80.78;101710.63;4993460;28;20026;-56
2022/01/02 00:43:19;;;;;;;18.02;7.70;;;;;;;11.08;82.04;101697.34;4993338;28;20022;-57
2022/01/02 00:45:49;;;;;;;18.45;8.05;;;;;;;11.01;82.43;101691.31;4994376;28;20022;-58
2022/01/02 00:48:18;;;;;;;16.95;7.57;;;;;;;11.05;83.47;101697.91;4993367;28;20489;-57
2022/01/02 00:50:50;;;;;;;17.83;8.00;;;;;;;10.98;83.36;101702.13;4993719;28;20069;-57
2022/01/02 00:53:20;;;;;;;18.08;7.95;;;;;;;11.00;84.06;101705.44;4993429;28;20053;-57
2022/01/02 00:55:59;;;;;;;16.27;7.70;;;;;;;10.95;83.95;101699.94;4993432;28;20478;-58
2022/01/02 00:58:33;;;;;;;17.15;7.75;;;;;;;10.90;84.67;101704.41;4993236;28;20109;-57
2022/01/02 01:01:03;;;;;;;18.38;7.80;;;;;;;10.89;84.53;101708.28;4993197;28;20462;-57
2022/01/02 01:03:30;;;;;;;17.35;8.15;;;;;;;10.74;85.65;101687.06;4993644;28;20057;-58
2022/01/02 01:05:57;;;;;;;18.83;7.80;;;;;;;10.72;86.34;101697.59;4992946;28;20081;-58
2022/01/02 01:08:23;;;;;;;18.35;8.20;;;;;;;10.68;86.67;101685.41;4993608;28;20022;-59
2022/01/02 01:10:49;;;;;;;17.27;8.07;;;;;;;10.64;86.95;101689.03;4993176;28;20022;-58
2022/01/02 01:13:16;;;;;;;19.10;8.23;;;;;;;10.60;87.61;101674.97;4993295;28;20488;-58
2022/01/02 01:15:42;;;;;;;17.90;8.25;;;;;;;10.60;87.79;101672.19;4992877;28;20039;-57
2022/01/02 01:18:07;;;;;;;18.90;7.93;;;;;;;10.59;88.38;101663.09;4992887;28;20064;-57
2022/01/02 01:20:41;;;;;;;18.92;7.75;;;;;;;10.58;88.65;101666.16;4993166;28;20109;-58
2022/01/02 01:23:06;;;;;;;21.17;8.35;;;;;;;10.60;88.31;101664.75;4993601;28;20493;-58
2022/01/02 01:25:32;;;;;;;20.35;8.38;;;;;;;10.58;88.84;101655.06;4993400;28;20022;-57
2022/01/02 01:27:58;;;;;;;18.60;8.10;;;;;;;10.59;88.89;101665.00;4993010;28;20040;-58
2022/01/02 01:30:25;;;;;;;29.70;8.88;;;;;;;10.56;89.68;101657.28;4993192;28;20456;-59
2022/01/02 01:32:52;;;;;;;19.75;8.02;;;;;;;10.59;89.43;101665.00;4993424;28;20041;-57
2022/01/02 01:35:19;;;;;;;20.00;8.30;;;;;;;10.53;89.78;101664.19;4993140;28;20030;-57
2022/01/02 01:37:44;;;;;;;18.08;8.23;;;;;;;10.48;90.43;101647.66;4993127;28;20040;-57
2022/01/02 01:40:12;;;;;;;18.88;7.90;;;;;;;10.49;90.49;101654.00;4993331;28;20105;-56
2022/01/02 01:42:42;;;;;;;19.92;8.10;;;;;;;10.49;90.64;101643.78;4993261;28;20033;-58
2022/01/02 01:47:56;;;;;;;19.20;8.40;;;;;;;10.44;90.85;101619.72;4996256;28;20038;-57
2022/01/02 01:50:25;;;;;;;18.80;8.07;;;;;;;10.41;90.66;101614.75;4997256;28;20077;-57
2022/01/02 01:52:50;;;;;;;22.05;8.55;;;;;;;10.56;90.98;101626.88;4997046;28;20042;-57
2022/01/02 01:55:16;;;;;;;20.52;8.05;;;;;;;10.57;91.29;101626.56;4996974;28;20029;-57
2022/01/02 01:57:42;;;;;;;23.25;8.65;;;;;;;10.55;91.55;101614.13;4996814;28;20085;-58
2022/01/02 02:00:13;;;;;;;19.00;8.00;;;;;;;10.55;91.56;101611.38;4996752;28;20470;-57
2022/01/02 02:02:38;;;;;;;22.10;8.93;;;;;;;10.56;91.64;101607.50;4996633;28;20069;-58
2022/01/02 02:05:04;;;;;;;21.80;8.75;;;;;;;10.58;91.44;101606.09;4996287;28;20062;-57
2022/01/02 02:07:38;;;;;;;18.70;7.90;;;;;;;10.56;91.81;101593.66;4996546;28;20064;-57
2022/01/02 02:10:12;;;;;;;20.80;8.00;;;;;;;10.57;91.93;101578.72;4996525;28;20027;-58
2022/01/02 02:12:39;;;;;;;20.38;7.88;;;;;;;10.54;91.99;101584.81;4996405;28;20027;-57
2022/01/02 02:15:07;;;;;;;16.90;7.35;;;;;;;10.49;92.19;101571.84;4996369;28;20026;-57
2022/01/02 02:17:33;;;;;;;18.90;7.70;;;;;;;10.56;91.63;101575.09;4996163;28;20037;-57
2022/01/02 02:20:11;;;;;;;19.63;7.90;;;;;;;10.58;91.98;101575.66;4996247;28;20030;-57
2022/01/02 02:22:43;;;;;;;19.80;7.70;;;;;;;10.62;91.80;101573.13;4996138;28;20026;-57
2022/01/02 02:25:10;;;;;;;18.42;7.68;;;;;;;10.60;91.76;101567.06;4995383;28;20057;-57
2022/01/02 02:27:35;;;;;;;20.35;7.88;;;;;;;10.64;91.79;101565.38;4995890;28;20101;-58
2022/01/02 02:30:01;;;;;;;20.63;6.90;;;;;;;10.66;91.55;101565.91;4995062;28;20165;-56
2022/01/02 02:32:26;;;;;;;19.75;7.97;;;;;;;10.68;91.21;101562.84;4996021;28;20026;-58
2022/01/02 02:34:52;;;;;;;21.58;7.50;;;;;;;10.71;91.42;101560.31;4994764;28;20031;-58
2022/01/02 02:37:17;;;;;;;19.90;7.75;;;;;;;10.70;91.27;101546.78;4995823;28;20478;-58
2022/01/02 02:39:43;;;;;;;17.45;7.60;;;;;;;10.69;91.57;101551.47;4995601;28;20420;-57
2022/01/02 02:42:21;;;;;;;18.77;7.53;;;;;;;10.68;91.18;101538.75;4995864;28;20027;-58
2022/01/02 02:44:47;;;;;;;20.42;8.00;;;;;;;10.70;91.48;101535.72;4996041;28;20125;-57
2022/01/02 02:49:55;;;;;;;20.17;7.35;;;;;;;10.70;90.86;101519.13;4995894;28;20065;-58
2022/01/02 02:52:37;;;;;;;18.70;7.95;;;;;;;10.68;91.21;101532.41;4995500;28;20514;-58
2022/01/02 02:55:03;;;;;;;18.88;7.47;;;;;;;10.68;91.36;101537.94;4995649;28;20038;-57
2022/01/02 02:57:28;;;;;;;20.70;8.23;;;;;;;10.66;91.45;101496.75;4995271;28;20029;-58
2022/01/02 02:59:53;;;;;;;18.35;7.60;;;;;;;10.63;91.49;101500.06;4994772;28;20602;-58
2022/01/02 03:02:19;;;;;;;20.08;7.82;;;;;;;10.69;91.20;101506.38;4995316;28;20018;-57
2022/01/02 03:04:44;;;;;;;19.20;8.07;;;;;;;10.74;90.74;101500.78;4995469;28;20066;-59
2022/01/02 03:07:09;;;;;;;20.45;7.50;;;;;;;10.73;90.56;101504.69;4995177;28;20367;-57
2022/01/02 03:09:39;;;;;;;17.23;7.72;;;;;;;10.72;90.62;101498.31;4994792;28;20050;-57
2022/01/02 03:12:06;;;;;;;20.35;7.72;;;;;;;10.68;90.57;101505.56;4994672;28;20041;-57
2022/01/02 03:14:32;;;;;;;22.52;7.65;;;;;;;10.76;90.23;101515.19;4995202;28;20041;-58
2022/01/02 03:16:57;;;;;;;20.02;7.53;;;;;;;10.80;90.04;101509.88;4994590;28;20026;-58
2022/01/02 03:19:23;;;;;;;19.73;7.80;;;;;;;10.78;90.14;101526.78;4995357;28;20449;-57
2022/01/02 03:21:49;;;;;;;23.45;8.45;;;;;;;10.75;90.51;101510.75;4994905;28;20030;-57
2022/01/02 03:24:14;;;;;;;17.85;7.57;;;;;;;10.71;91.01;101495.88;4995091;28;20030;-58
2022/01/02 03:26:39;;;;;;;18.95;8.27;;;;;;;10.74;91.01;101512.72;4995035;28;20034;-58
2022/01/02 03:29:05;;;;;;;17.70;7.75;;;;;;;10.71;91.22;101529.06;4995440;28;20465;-57
2022/01/02 03:31:30;;;;;;;21.13;8.10;;;;;;;10.67;91.59;101511.38;4993537;28;20018;-56
2022/01/02 03:33:56;;;;;;;22.55;8.32;;;;;;;10.70;91.17;101514.41;4995074;28;20030;-57
2022/01/02 03:36:21;;;;;;;20.83;7.70;;;;;;;10.76;90.60;101517.94;4995042;28;20046;-55
2022/01/02 03:38:47;;;;;;;19.55;7.75;;;;;;;10.70;91.16;101511.63;4994101;28;20097;-56
2022/01/02 03:41:12;;;;;;;19.98;7.57;;;;;;;10.69;91.67;101509.16;4994923;28;20074;-56
2022/01/02 03:43:38;;;;;;;20.05;7.18;;;;;;;10.67;92.00;101512.22;4994859;28;20493;-57
2022/01/02 03:46:03;;;;;;;20.77;8.13;;;;;;;10.63;92.28;101524.97;4994684;28;20477;-57
2022/01/02 03:48:30;;;;;;;23.65;7.88;;;;;;;10.58;92.79;101519.50;4994159;28;20112;-57
2022/01/02 03:50:55;;;;;;;20.70;8.10;;;;;;;10.53;92.96;101509.28;4994811;28;20034;-59
2022/01/02 03:53:21;;;;;;;22.02;8.13;;;;;;;10.49;93.12;101505.44;4994776;28;20053;-58
2022/01/02 03:55:46;;;;;;;20.05;8.05;;;;;;;10.44;93.71;101503.56;4994355;28;20026;-57
2022/01/02 03:58:11;;;;;;;21.67;7.65;;;;;;;10.44;93.45;101505.47;4994039;28;20033;-55
2022/01/02 04:00:36;;;;;;;19.88;8.02;;;;;;;10.38;93.90;101501.09;4994734;28;20026;-55
2022/01/02 04:03:02;;;;;;;20.50;8.50;;;;;;;10.38;93.62;101487.28;4994510;28;20038;-57
2022/01/02 04:05:27;;;;;;;19.02;8.07;;;;;;;10.36;93.78;101482.03;4994502;28;20036;-57
2022/01/02 04:07:52;;;;;;;20.60;8.50;;;;;;;10.36;94.01;101478.41;4994435;28;20026;-57
2022/01/02 04:10:18;;;;;;;22.15;8.60;;;;;;;10.31;93.97;101465.44;4993014;28;20105;-57
2022/01/02 04:12:44;;;;;;;20.05;8.05;;;;;;;10.33;94.30;101473.47;4994042;28;20028;-59
2022/01/02 04:15:11;;;;;;;19.38;7.25;;;;;;;10.30;94.16;101472.09;4994032;28;20030;-58
2022/01/02 04:17:37;;;;;;;19.33;7.45;;;;;;;10.31;93.72;101448.84;4994002;28;20053;-55
2022/01/02 04:20:07;;;;;;;19.08;7.20;;;;;;;10.33;93.87;101449.41;4992090;28;20037;-58
2022/01/02 04:22:33;;;;;;;18.02;7.53;;;;;;;10.33;93.62;101446.63;4994140;28;20027;-59
2022/01/02 04:24:59;;;;;;;21.83;8.13;;;;;;;10.38;93.39;101454.09;4993839;28;20040;-56
2022/01/02 04:27:24;;;;;;;23.17;7.70;;;;;;;10.40;93.44;101451.88;4993433;28;20402;-55
2022/01/02 04:29:50;;;;;;;20.52;7.70;;;;;;;10.42;93.09;101456.00;4994022;28;20026;-56
2022/01/02 04:32:16;;;;;;;19.65;7.50;;;;;;;10.43;93.40;101457.66;4993675;28;20034;-56
2022/01/02 04:34:42;;;;;;;19.23;7.32;;;;;;;10.45;93.34;101452.66;4994105;28;20030;-57
2022/01/02 04:37:08;;;;;;;18.50;7.45;;;;;;;10.46;92.86;101447.94;4993627;28;20022;-56
2022/01/02 04:39:34;;;;;;;19.23;7.45;;;;;;;10.43;93.07;101441.03;4994236;28;20030;-59
2022/01/02 04:41:59;;;;;;;18.33;7.25;;;;;;;10.44;93.33;101441.84;4993323;28;20033;-57
2022/01/02 04:44:26;;;;;;;18.40;7.60;;;;;;;10.42;93.52;101435.81;4993606;28;20034;-57
2022/01/02 04:46:51;;;;;;;18.45;7.50;;;;;;;10.37;93.80;101439.44;4993765;28;20030;-56
2022/01/02 04:49:16;;;;;;;19.00;7.47;;;;;;;10.37;93.68;101431.16;4993671;28;20550;-56
2022/01/02 04:51:42;;;;;;;18.92;8.05;;;;;;;10.32;94.12;101420.09;4992966;28;20077;-56
2022/01/02 04:54:07;;;;;;;23.27;8.15;;;;;;;10.29;94.32;101409.63;4992934;28;20496;-57
2022/01/02 04:56:32;;;;;;;18.98;7.82;;;;;;;10.24;94.66;101409.66;4993583;28;20069;-55
2022/01/02 04:58:58;;;;;;;19.95;8.27;;;;;;;10.22;94.76;101398.91;4993559;28;20034;-56
2022/01/02 05:01:23;;;;;;;19.75;7.60;;;;;;;10.21;94.63;101393.63;4993237;28;20035;-58
2022/01/02 05:03:48;;;;;;;20.77;7.70;;;;;;;10.18;95.34;101388.72;4994002;28;20042;-56
2022/01/02 05:06:13;;;;;;;18.90;7.97;;;;;;;10.14;95.00;101378.22;4993752;28;20485;-57
2022/01/02 05:08:43;;;;;;;17.20;7.10;;;;;;;10.10;95.61;101379.94;4993623;28;20109;-58
2022/01/02 05:11:08;;;;;;;20.45;8.45;;;;;;;10.07;95.55;101369.44;4993551;28;20030;-56
2022/01/02 05:13:33;;;;;;;18.23;8.05;;;;;;;10.07;95.14;101363.06;4993084;28;20500;-56
2022/01/02 05:15:58;;;;;;;19.63;7.95;;;;;;;10.04;95.19;101356.19;4993273;28;20077;-56
2022/01/02 05:18:24;;;;;;;21.88;7.80;;;;;;;10.04;95.33;101352.63;4993483;28;20117;-57
2022/01/02 05:20:49;;;;;;;21.52;8.13;;;;;;;10.02;95.64;101358.41;4993626;28;20030;-58
2022/01/02 05:23:16;;;;;;;21.42;7.57;;;;;;;10.02;95.82;101346.53;4997393;28;20030;-58
2022/01/02 05:25:41;;;;;;;18.75;7.65;;;;;;;10.01;95.78;101350.41;4997652;28;20030;-57
2022/01/02 05:28:06;;;;;;;21.23;7.97;;;;;;;10.01;95.60;101339.38;4997014;28;20540;-57
2022/01/02 05:30:32;;;;;;;19.52;9.07;;;;;;;10.01;95.84;101333.84;4997088;28;20109;-57
2022/01/02 05:32:57;;;;;;;20.33;7.22;;;;;;;10.00;96.16;101333.03;4997178;28;20536;-58
2022/01/02 05:35:23;;;;;;;18.98;7.15;;;;;;;9.98;96.17;101330.53;4997746;28;20026;-58
2022/01/02 05:37:48;;;;;;;19.42;7.55;;;;;;;10.01;95.84;101328.31;4997326;28;20077;-58
2022/01/02 05:40:13;;;;;;;19.05;7.15;;;;;;;10.00;96.07;101324.72;4997237;28;20035;-56
2022/01/02 05:42:38;;;;;;;19.27;7.35;;;;;;;9.99;96.16;101334.94;4996680;28;20026;-57
2022/01/02 05:45:04;;;;;;;17.77;7.38;;;;;;;9.99;95.83;101323.09;4996721;28;20034;-57
2022/01/02 05:47:29;;;;;;;20.27;7.30;;;;;;;9.97;95.94;101319.78;4997231;28;20030;-58
2022/01/02 05:49:54;;;;;;;20.83;7.65;;;;;;;9.95;96.16;101317.31;4997341;28;20045;-57
2022/01/02 05:52:20;;;;;;;17.70;7.20;;;;;;;9.93;96.45;101305.72;4996255;28;20096;-57
2022/01/02 05:54:45;;;;;;;22.30;7.72;;;;;;;9.93;96.18;101302.94;4997071;28;20038;-59
2022/01/02 05:57:10;;;;;;;20.05;7.90;;;;;;;9.90;96.92;101299.94;4997034;28;20026;-58
2022/01/02 05:59:37;;;;;;;20.50;7.70;;;;;;;9.88;97.09;101291.13;4996638;28;20027;-57
2022/01/02 06:02:02;;;;;;;19.23;7.85;;;;;;;9.88;97.17;101272.59;4996758;28;20381;-57
2022/01/02 06:04:28;;;;;;;19.92;7.50;;;;;;;9.84;96.92;101261.28;4996400;28;20022;-56
2022/01/02 06:06:53;;;;;;;18.35;6.90;;;;;;;9.83;96.89;101253.31;4996700;28;20074;-57
2022/01/02 06:09:18;;;;;;;19.55;7.63;;;;;;;9.81;97.20;101247.25;4996086;28;20033;-57
2022/01/02 06:11:43;;;;;;;19.52;7.22;;;;;;;9.80;96.73;101240.06;4996276;28;20481;-57
2022/01/02 06:14:09;;;;;;;20.58;7.47;;;;;;;9.81;97.20;101238.94;4995688;28;20047;-55
2022/01/02 06:16:34;;;;;;;19.30;7.32;;;;;;;9.78;97.15;101228.47;4996010;28;20447;-57
2022/01/02 06:19:00;;;;;;;21.55;7.60;;;;;;;9.79;96.94;101222.66;4996058;28;20438;-57
2022/01/02 06:21:26;;;;;;;19.20;7.60;;;;;;;9.80;96.50;101216.03;4996938;28;20133;-57
2022/01/02 06:23:51;;;;;;;19.13;7.68;;;;;;;9.78;96.53;101209.13;4996263;28;20022;-57
2022/01/02 06:26:16;;;;;;;17.58;7.57;;;;;;;9.77;96.67;101207.50;4996463;28;20363;-57
2022/01/02 06:28:41;;;;;;;21.35;7.43;;;;;;;9.78;96.53;101198.91;4996259;28;20045;-57
2022/01/02 06:31:08;;;;;;;20.15;7.80;;;;;;;9.83;95.92;101178.69;4996292;28;20038;-56
2022/01/02 06:33:34;;;;;;;19.77;7.35;;;;;;;9.82;95.40;101177.84;4994785;28;20030;-58
2022/01/02 06:35:59;;;;;;;16.88;6.85;;;;;;;9.84;95.79;101169.28;4996114;28;20110;-58
2022/01/02 06:38:24;;;;;;;18.42;7.15;;;;;;;9.84;95.41;101152.72;4996075;28;20470;-55
2022/01/02 06:40:50;;;;;;;18.90;6.95;;;;;;;9.87;94.75;101146.56;4995989;28;20018;-58
2022/01/02 06:43:16;;;;;;;18.13;7.20;;;;;;;9.88;95.02;101134.41;4996071;28;20034;-57
2022/01/02 06:45:43;;;;;;;18.02;7.00;;;;;;;9.90;94.58;101123.09;4995867;28;20034;-56
2022/01/02 06:48:08;;;;;;;17.15;7.18;;;;;;;9.94;93.91;101115.84;4995602;28;20026;-56
2022/01/02 06:50:33;;;;;;;17.80;6.90;;;;;;;9.93;94.19;101114.19;4995315;28;20397;-56
2022/01/02 06:52:59;;;;;;;16.67;6.95;;;;;;;9.93;93.85;101101.19;4995188;28;20042;-56
2022/01/02 06:55:24;;;;;;;20.33;7.18;;;;;;;9.94;93.84;101085.44;4995667;28;20041;-56
2022/01/02 06:57:49;;;;;;;18.20;7.55;;;;;;;9.95;93.39;101089.84;4995560;28;20034;-56
2022/01/02 07:00:15;;;;;;;17.23;7.40;;;;;;;9.94;94.41;101090.97;4994651;28;20030;-56
2022/01/02 07:02:40;;;;;;;18.45;7.40;;;;;;;9.94;93.56;101088.19;4995900;28;20026;-57
2022/01/02 07:05:06;;;;;;;19.38;7.22;;;;;;;9.95;93.82;101084.31;4995861;28;20477;-57
2022/01/02 07:07:31;;;;;;;19.42;7.47;;;;;;;9.91;94.27;101075.00;4995918;28;20033;-57
2022/01/02 07:09:56;;;;;;;19.05;7.55;;;;;;;9.88;93.88;101076.38;4995757;28;20077;-57
2022/01/02 07:12:23;;;;;;;15.90;7.18;;;;;;;9.90;93.89;101093.50;4994381;28;20035;-56
2022/01/02 07:14:49;;;;;;;18.35;7.18;;;;;;;9.91;93.81;101097.91;4994978;28;20367;-57
2022/01/02 07:17:15;;;;;;;19.13;7.13;;;;;;;9.97;93.19;101093.94;4995515;28;20037;-57
2022/01/02 07:19:40;;;;;;;17.83;7.07;;;;;;;9.97;92.66;101088.41;4995660;28;20108;-57
2022/01/02 07:22:05;;;;;;;17.02;6.97;;;;;;;9.96;92.17;101074.91;4995514;28;20041;-56
2022/01/02 07:24:31;;;;;;;17.08;7.13;;;;;;;9.95;92.25;101070.50;4995656;28;20466;-57
2022/01/02 07:26:56;;;;;;;18.35;7.57;;;;;;;9.91;92.85;101086.84;4994102;28;20033;-55
2022/01/02 07:29:21;;;;;;;16.20;7.47;;;;;;;9.89;92.35;101091.03;4995141;28;20080;-55
2022/01/02 07:31:47;;;;;;;17.27;7.30;;;;;;;9.89;92.36;101089.09;4994000;28;20058;-57
2022/01/02 07:34:12;;;;;;;17.33;7.50;;;;;;;9.89;92.22;101078.03;4994667;28;20084;-54
2022/01/02 07:36:44;;;;;;;15.85;7.47;;;;;;;9.88;91.88;101062.56;4994927;28;20026;-55
2022/01/02 07:39:09;;;;;;;17.48;7.40;;;;;;;9.89;91.99;101049.59;4994582;28;20027;-57
2022/01/02 07:41:35;;;;;;;14.90;7.20;;;;;;;9.89;91.27;101042.09;4994909;28;20032;-57
2022/01/02 07:44:03;;;;;;;17.13;7.70;;;;;;;9.90;91.22;101037.41;4994805;28;20022;-57
2022/01/02 07:46:28;;;;;;;16.95;7.60;;;;;;;9.89;90.90;101046.81;4995198;28;20022;-56
2022/01/02 07:48:54;;;;;;;17.67;7.55;;;;;;;9.87;91.64;101057.34;4994835;28;20038;-57
2022/01/02 07:51:19;;;;;;;18.70;8.20;;;;;;;9.82;90.94;101055.47;4994787;28;20041;-56
2022/01/02 07:53:44;;;;;;;16.30;7.45;;;;;;;9.89;90.82;101049.59;4992656;28;20124;-58
2022/01/02 07:56:10;;;;;;;17.48;8.25;;;;;;;9.89;90.44;101064.22;4994749;28;20034;-56
2022/01/02 07:58:36;;;;;;;15.85;7.30;;;;;;;9.94;89.65;101058.63;4994695;28;20030;-58
2022/01/02 08:01:01;;;;;;;16.15;7.03;;;;;;;9.99;89.63;101075.13;4994719;28;20594;-58
2022/01/02 08:03:26;;;;;;;18.35;7.60;;;;;;;10.08;89.20;101111.25;4994104;28;20105;-55
2022/01/02 08:05:52;;;;;;;13.52;7.20;;;;;;;10.11;89.47;101105.09;4994260;28;20030;-56
2022/01/02 08:08:17;;;;;;;15.68;7.78;;;;;;;10.10;89.19;101111.78;4993484;28;20374;-56
2022/01/02 08:10:42;;;;;;;15.20;7.57;;;;;;;10.10;89.20;101081.38;4992566;28;20080;-56
2022/01/02 08:13:07;;;;;;;17.40;7.65;;;;;;;10.11;89.22;101082.19;4993965;28;20053;-57
2022/01/02 08:15:33;;;;;;;16.25;7.43;;;;;;;10.08;88.82;101072.53;4994581;28;20463;-59
2022/01/02 08:17:58;;;;;;;13.93;7.47;;;;;;;10.09;89.09;101079.72;4994715;28;20037;-58
2022/01/02 08:20:24;;;;;;;15.98;7.40;;;;;;;10.15;88.05;101086.81;4994189;28;20381;-56
2022/01/02 08:22:49;;;;;;;17.35;7.65;;;;;;;10.18;88.39;101093.69;4993225;28;20045;-57
2022/01/02 08:25:14;;;;;;;14.35;7.75;;;;;;;10.26;86.98;101090.25;4993733;28;20034;-57
2022/01/02 08:27:40;;;;;;;17.88;7.30;;;;;;;10.31;87.04;101089.34;4994027;28;20033;-58
2022/01/02 08:30:06;;;;;;;15.85;7.20;;;;;;;10.33;86.81;101094.59;4993870;28;20033;-58
2022/01/02 08:32:31;;;;;;;17.17;6.97;;;;;;;10.33;85.99;101092.66;4993518;28;20030;-57
2022/01/02 08:34:56;;;;;;;14.40;7.15;;;;;;;10.40;86.68;101090.34;4993923;28;20083;-58
2022/01/02 08:37:22;;;;;;;15.52;7.50;;;;;;;10.36;87.06;101042.28;4993416;28;20129;-57
2022/01/02 08:39:48;;;;;;;16.00;7.40;;;;;;;10.33;87.54;101066.94;4993419;28;20023;-58
2022/01/02 08:42:14;;;;;;;16.08;7.35;;;;;;;10.37;87.12;101095.63;4993222;28;20056;-58
2022/01/02 08:44:42;;;;;;;15.07;6.88;;;;;;;10.37;87.37;101081.81;4993413;28;20509;-56
2022/01/02 08:47:07;;;;;;;13.32;6.80;;;;;;;10.36;86.78;101086.53;4993804;28;20030;-55
2022/01/02 08:49:32;;;;;;;15.23;6.85;;;;;;;10.31;87.12;101072.75;4992497;28;20022;-57
2022/01/02 08:51:58;;;;;;;16.77;6.97;;;;;;;10.27;86.23;101068.97;4992848;28;20038;-57
2022/01/02 08:54:23;;;;;;;17.70;7.13;;;;;;;10.38;86.41;101089.84;4993330;28;20037;-55
2022/01/02 08:56:49;;;;;;;15.10;6.85;;;;;;;10.41;85.51;101091.19;4993078;28;20030;-57
2022/01/02 08:59:14;;;;;;;16.77;7.07;;;;;;;10.48;84.97;101110.19;4993373;28;20032;-57
2022/01/02 09:01:40;;;;;;;18.85;7.22;;;;;;;10.53;84.46;101099.84;4993210;28;20023;-55
2022/01/02 09:04:05;;;;;;;14.15;6.63;;;;;;;10.57;84.51;101100.09;4993161;28;20061;-57
2022/01/02 09:06:30;;;;;;;16.88;6.97;;;;;;;10.56;84.84;101088.19;4992824;28;20030;-56
2022/01/02 09:08:56;;;;;;;14.90;6.75;;;;;;;10.56;83.73;101081.84;4972167;28;20482;-57
2022/01/02 09:11:22;;;;;;;16.42;6.85;;;;;;;10.64;82.58;101078.41;4972191;28;20026;-57
2022/01/02 09:13:47;;;;;;;16.60;7.32;;;;;;;10.65;82.92;101079.22;4972273;28;20038;-57
2022/01/02 09:16:13;;;;;;;18.17;7.07;;;;;;;10.75;82.53;101082.66;4972028;28;20022;-56
2022/01/02 09:18:38;;;;;;;15.85;7.45;;;;;;;10.78;82.38;101084.00;4971816;28;20113;-55
2022/01/02 09:21:03;;;;;;;16.30;6.97;;;;;;;10.86;81.51;101091.59;4971900;28;20027;-55
2022/01/02 09:23:29;;;;;;;16.48;7.32;;;;;;;10.90;81.34;101077.97;4972140;28;20031;-55
2022/01/02 09:25:54;;;;;;;17.73;7.50;;;;;;;10.91;81.60;101087.94;4977682;28;20041;-55
2022/01/02 09:28:19;;;;;;;15.98;7.40;;;;;;;10.98;80.94;101093.88;4990246;28;20076;-55
2022/01/02 09:30:44;;;;;;;16.08;7.38;;;;;;;10.98;81.41;101093.06;4990402;28;20037;-55
2022/01/02 09:33:10;;;;;;;16.95;8.00;;;;;;;11.02;81.66;101081.09;4991418;28;20406;-55
2022/01/02 09:35:38;;;;;;;16.80;7.55;;;;;;;11.09;81.58;101100.09;4991378;28;20030;-56
2022/01/02 09:38:03;;;;;;;18.15;7.93;;;;;;;11.17;81.63;101088.31;4991290;28;20093;-56
2022/01/02 09:40:30;;;;;;;18.58;7.82;;;;;;;11.23;80.76;101089.84;4988048;28;20159;-56
2022/01/02 09:42:57;;;;;;;15.63;7.75;;;;;;;11.28;81.35;101093.66;4990983;28;20061;-55
2022/01/02 09:45:22;;;;;;;17.15;7.90;;;;;;;11.35;81.10;101105.16;4991319;28;20068;-55
2022/01/02 09:47:49;;;;;;;16.25;7.50;;;;;;;11.33;80.96;101102.72;4988957;28;20058;-55
2022/01/02 09:50:17;;;;;;;18.40;7.72;;;;;;;11.38;80.12;101102.59;4993358;28;20062;-56
2022/01/02 09:52:42;;;;;;;17.42;8.30;;;;;;;11.36;80.65;101102.09;4991941;28;20383;-55
2022/01/02 09:55:08;;;;;;;16.23;7.97;;;;;;;11.30;81.58;101100.53;4991155;28;20058;-56
2022/01/02 09:57:33;;;;;;;19.35;8.45;;;;;;;11.30;80.89;101091.41;4990689;28;20026;-55
2022/01/02 09:59:58;;;;;;;19.17;8.70;;;;;;;11.29;81.40;101103.63;4992126;28;20049;-56
2022/01/02 10:02:24;;;;;;;16.73;8.02;;;;;;;11.32;81.33;101098.28;4992676;28;20117;-56
2022/01/02 10:04:59;;;;;;;17.48;8.57;;;;;;;11.33;81.15;101091.63;4992723;28;20034;-56
2022/01/02 10:07:33;;;;;;;18.98;8.60;;;;;;;11.45;80.50;101095.84;4993942;28;20034;-56
2022/01/02 10:10:08;;;;;;;18.40;7.95;;;;;;;11.49;81.52;101099.66;4996777;28;20378;-56
2022/01/02 10:12:34;;;;;;;17.45;7.72;;;;;;;11.65;80.20;101095.44;4996838;28;20023;-55
2022/01/02 10:15:13;;;;;;;19.33;8.02;;;;;;;11.74;80.18;101098.34;4996385;28;20038;-56
2022/01/02 10:18:05;;;;;;;20.10;8.23;;;;;;;11.78;80.12;101107.66;4996824;28;20520;-56
2022/01/02 10:20:38;;;;;;;20.45;8.13;;;;;;;11.80;79.11;101099.84;4996801;28;20030;-55
2022/01/02 10:23:23;;;;;;;17.00;7.88;;;;;;;11.84;78.67;101103.66;4996615;28;20355;-57
2022/01/02 10:26:00;;;;;;;18.63;8.15;;;;;;;11.90;78.77;101107.16;4996472;28;20042;-56
2022/01/02 10:28:38;;;;;;;18.10;7.95;;;;;;;11.89;79.02;101107.44;4996561;28;20094;-57
2022/01/02 10:31:08;;;;;;;18.75;8.02;;;;;;;11.84;79.06;101095.34;4996814;28;20077;-57
2022/01/02 10:33:55;;;;;;;16.83;7.97;;;;;;;11.85;79.78;101096.16;4996222;28;20023;-56
2022/01/02 10:36:32;;;;;;;19.27;7.88;;;;;;;11.86;79.11;101100.59;4996474;28;20026;-56
2022/01/02 10:39:06;;;;;;;16.38;7.70;;;;;;;11.88;78.72;101092.78;4996404;28;20027;-56
2022/01/02 10:41:36;;;;;;;17.10;7.78;;;;;;;11.91;78.73;101083.03;4994819;28;20033;-56
2022/01/02 10:44:33;;;;;;;21.27;8.10;;;;;;;12.06;78.19;101070.81;4996127;28;20026;-56
2022/01/02 10:47:25;;;;;;;20.85;8.07;;;;;;;12.00;78.63;101070.91;4996027;28;20486;-56
2022/01/02 10:50:03;;;;;;;18.77;8.60;;;;;;;12.01;78.74;101078.09;4996614;28;20046;-56
2022/01/02 10:52:30;;;;;;;17.20;7.40;;;;;;;11.94;78.55;101072.13;4995708;28;20429;-57
2022/01/02 10:54:58;;;;;;;18.30;7.80;;;;;;;11.98;78.42;101092.59;4996005;28;20027;-56
2022/01/02 10:57:24;;;;;;;18.63;8.40;;;;;;;12.06;77.65;101079.13;4996299;28;20030;-57
2022/01/02 10:59:55;;;;;;;20.02;8.00;;;;;;;12.00;78.67;101070.91;4995898;28;20030;-57
2022/01/02 11:02:22;;;;;;;21.15;8.32;;;;;;;12.04;78.80;101064.75;4995933;28;20042;-53
2022/01/02 11:04:56;;;;;;;17.17;7.93;;;;;;;12.03;79.09;101072.25;4995559;28;20034;-55
2022/01/02 11:07:23;;;;;;;18.00;8.57;;;;;;;12.04;78.46;101084.16;4995629;28;20153;-55
2022/01/02 11:09:52;;;;;;;17.95;8.02;;;;;;;12.06;78.48;101090.22;4995455;28;20030;-57
2022/01/02 11:12:18;;;;;;;19.40;7.70;;;;;;;12.10;78.08;101080.13;4995731;28;20088;-57
2022/01/02 11:14:43;;;;;;;18.95;7.47;;;;;;;12.11;78.16;101071.53;4995747;28;20019;-57
2022/01/02 11:17:08;;;;;;;18.92;7.70;;;;;;;12.20;77.97;101084.66;4995577;28;20602;-58
2022/01/02 11:19:34;;;;;;;18.50;8.02;;;;;;;12.20;78.68;101074.38;4995155;28;20018;-58
2022/01/02 11:22:03;;;;;;;18.15;7.63;;;;;;;12.27;78.01;101073.94;4995425;28;20026;-56
2022/01/02 11:24:38;;;;;;;17.58;7.78;;;;;;;12.37;78.19;101070.13;4995337;28;20034;-56